Time;durP1;ratioP1;P1;durP2;ratioP2;P2;SDS_P1;SDS_P2;PMS_P1;PMS_P2;Temp;Humidity;BMP_temperature;BMP_pressure;BME280_temperature;BME280_humidity;BME280_pressure;Samples;Min_cycle;Max_cycle;Signal;HPM_P1;HPM_P2
2023/01/29 00:00:16;;;;;;;3.22;3.03;;;17.10;50.10;;;;;;5095371;28;20269;-51
2023/01/29 00:02:41;;;;;;;3.10;2.90;;;17.10;50.10;;;;;;5096228;28;20209;-54
2023/01/29 00:05:07;;;;;;;3.40;3.20;;;17.00;50.00;;;;;;5096213;28;20208;-49
2023/01/29 00:07:33;;;;;;;3.70;3.40;;;17.00;50.00;;;;;;5095142;28;20187;-56
2023/01/29 00:09:58;;;;;;;3.83;3.50;;;17.00;50.00;;;;;;5096001;28;20566;-48
2023/01/29 00:12:24;;;;;;;3.85;3.55;;;17.00;50.00;;;;;;5095727;28;20712;-56
2023/01/29 00:14:49;;;;;;;4.43;4.03;;;17.00;50.00;;;;;;5095185;28;20268;-55
2023/01/29 00:17:15;;;;;;;3.67;3.38;;;17.00;49.90;;;;;;5095659;28;20269;-53
2023/01/29 00:19:40;;;;;;;3.88;3.58;;;17.00;49.90;;;;;;5095608;28;20273;-55
2023/01/29 00:22:06;;;;;;;3.58;3.28;;;17.00;50.00;;;;;;5095291;28;20264;-53
2023/01/29 00:24:33;;;;;;;3.90;3.60;;;17.00;50.00;;;;;;5095378;28;20294;-52
2023/01/29 00:26:58;;;;;;;4.10;3.70;;;16.90;49.90;;;;;;5095511;28;20253;-54
2023/01/29 00:29:24;;;;;;;4.25;3.95;;;16.90;49.90;;;;;;5094199;28;20224;-54
2023/01/29 00:31:49;;;;;;;4.15;3.80;;;16.90;49.80;;;;;;5095497;28;20170;-48
2023/01/29 00:34:15;;;;;;;3.42;3.20;;;16.90;49.80;;;;;;5094741;28;20166;-51
2023/01/29 00:36:43;;;;;;;3.72;3.42;;;16.90;49.80;;;;;;5095301;28;20231;-57
2023/01/29 00:39:11;;;;;;;3.80;3.50;;;16.90;49.80;;;;;;5095503;28;20257;-55
2023/01/29 00:47:29;;;;;;;4.05;3.65;;;16.90;49.80;;;;;;5095435;28;20539;-55
2023/01/29 00:49:53;;;;;;;4.13;3.83;;;16.80;49.80;;;;;;5094301;28;20636;-50
2023/01/29 00:52:25;;;;;;;3.63;3.25;;;16.80;49.70;;;;;;5095044;28;20170;-53
2023/01/29 00:54:55;;;;;;;4.18;3.88;;;16.80;49.80;;;;;;5095430;28;20174;-49
2023/01/29 00:57:21;;;;;;;3.70;3.35;;;16.80;49.80;;;;;;5094231;28;20174;-51
2023/01/29 00:59:46;;;;;;;3.95;3.65;;;16.80;49.80;;;;;;5095161;28;20264;-52
2023/01/29 01:04:56;;;;;;;4.20;3.80;;;16.80;49.80;;;;;;5095030;28;20200;-53
2023/01/29 01:07:22;;;;;;;3.78;3.47;;;16.80;49.80;;;;;;5094634;28;20640;-51
2023/01/29 01:12:31;;;;;;;3.90;3.60;;;16.70;49.90;;;;;;5094783;28;20219;-55
2023/01/29 01:14:57;;;;;;;3.80;3.47;;;16.70;49.80;;;;;;5094917;28;20178;-54
2023/01/29 01:17:23;;;;;;;4.13;3.83;;;16.70;49.80;;;;;;5093704;28;20213;-50
2023/01/29 01:19:48;;;;;;;3.97;3.67;;;16.70;49.70;;;;;;5094894;28;20261;-56
2023/01/29 01:22:14;;;;;;;3.72;3.42;;;16.70;49.70;;;;;;5094795;28;20543;-54
2023/01/29 01:24:39;;;;;;;4.45;4.05;;;16.70;49.80;;;;;;5093750;28;20563;-55
2023/01/29 01:27:05;;;;;;;3.88;3.58;;;16.70;49.80;;;;;;5094610;28;20577;-52
2023/01/29 01:29:30;;;;;;;3.65;3.35;;;16.70;49.80;;;;;;5094154;28;20617;-55
2023/01/29 01:31:56;;;;;;;4.15;3.85;;;16.70;49.80;;;;;;5093896;28;20632;-51
2023/01/29 01:34:21;;;;;;;4.10;3.75;;;16.70;49.80;;;;;;5094325;28;20686;-55
2023/01/29 01:36:47;;;;;;;3.95;3.65;;;16.60;49.70;;;;;;5094535;28;20166;-52
2023/01/29 01:39:13;;;;;;;3.80;3.50;;;16.60;49.70;;;;;;5093709;28;20203;-55
2023/01/29 01:41:38;;;;;;;4.10;3.80;;;16.60;49.70;;;;;;5093301;28;20587;-56
2023/01/29 01:44:05;;;;;;;4.47;4.07;;;16.60;49.70;;;;;;5094240;28;20174;-52
2023/01/29 01:46:32;;;;;;;3.83;3.53;;;16.60;49.70;;;;;;5093040;28;20189;-54
2023/01/29 01:48:59;;;;;;;4.05;3.58;;;16.60;49.70;;;;;;5094132;28;20178;-51
2023/01/29 01:51:25;;;;;;;4.13;3.83;;;16.60;49.70;;;;;;5075889;28;20182;-51
2023/01/29 01:54:04;;;;;;;3.78;3.47;;;16.60;49.70;;;;;;5058668;28;20173;-51
2023/01/29 01:56:37;;;;;;;4.45;4.05;;;16.60;49.70;;;;;;5093870;28;20174;-54
2023/01/29 01:59:03;;;;;;;4.13;3.83;;;16.60;49.70;;;;;;5093410;28;20193;-49
2023/01/29 02:01:28;;;;;;;3.97;3.67;;;16.60;49.60;;;;;;5075308;28;20625;-55
2023/01/29 02:09:34;;;;;;;4.18;3.80;;;16.50;49.70;;;;;;5093380;28;20235;-53
2023/01/29 02:12:08;;;;;;;4.43;4.03;;;16.50;49.70;;;;;;5075969;28;20640;-52
2023/01/29 02:14:37;;;;;;;4.55;4.15;;;16.50;49.70;;;;;;5058030;28;20530;-57
2023/01/29 02:17:03;;;;;;;3.65;3.40;;;16.50;49.70;;;;;;5093562;28;20272;-53
2023/01/29 02:19:50;;;;;;;4.57;4.18;;;16.50;49.70;;;;;;5093092;28;20603;-56
2023/01/29 02:22:35;;;;;;;4.38;4.03;;;16.50;49.70;;;;;;5077913;28;20174;-52
2023/01/29 02:25:16;;;;;;;4.18;3.88;;;16.50;49.70;;;;;;5093386;28;20576;-49
2023/01/29 02:27:48;;;;;;;4.18;3.88;;;16.40;49.60;;;;;;5060159;28;20185;-49
2023/01/29 02:30:20;;;;;;;4.35;4.03;;;16.50;49.70;;;;;;5093256;28;20224;-49
2023/01/29 02:33:25;;;;;;;4.00;3.70;;;16.40;49.60;;;;;;5093447;28;20170;-54
2023/01/29 02:35:57;;;;;;;4.35;4.00;;;16.40;49.60;;;;;;5060319;28;20173;-52
2023/01/29 02:38:29;;;;;;;4.18;3.88;;;16.40;49.60;;;;;;5092874;28;20169;-57
2023/01/29 02:40:55;;;;;;;4.15;3.85;;;16.40;49.60;;;;;;5092713;28;20177;-56
2023/01/29 02:43:24;;;;;;;4.60;4.20;;;16.40;49.60;;;;;;5092981;28;20170;-53
2023/01/29 02:45:51;;;;;;;4.53;4.13;;;16.40;49.60;;;;;;5093171;28;20170;-50
2023/01/29 02:48:20;;;;;;;4.47;4.07;;;16.30;49.50;;;;;;5074280;28;20190;-53
2023/01/29 02:50:53;;;;;;;4.10;3.70;;;16.40;49.60;;;;;;5058495;28;20300;-53
2023/01/29 02:53:23;;;;;;;4.38;4.07;;;16.40;49.70;;;;;;5077732;28;20173;-49
2023/01/29 02:56:08;;;;;;;4.00;3.70;;;16.40;49.60;;;;;;5095295;28;20177;-48
2023/01/29 02:59:05;;;;;;;4.68;4.03;;;16.40;49.60;;;;;;5078937;28;20691;-52
2023/01/29 03:01:34;;;;;;;4.03;3.72;;;16.30;49.60;;;;;;5074741;28;20184;-52
2023/01/29 03:04:05;;;;;;;4.60;4.20;;;16.40;49.60;;;;;;5094896;28;20546;-50
2023/01/29 03:06:39;;;;;;;4.45;4.15;;;16.30;49.60;;;;;;5078560;28;20255;-57
2023/01/29 03:09:29;;;;;;;4.50;4.10;;;16.30;49.60;;;;;;5077988;28;20635;-51
2023/01/29 03:11:58;;;;;;;4.57;4.18;;;16.30;49.60;;;;;;5113525;28;20192;-52
2023/01/29 03:15:10;;;;;;;4.40;4.00;;;16.30;49.60;;;;;;5095137;28;20187;-56
2023/01/29 03:17:17;;;;;;;4.22;3.92;;;16.30;49.60;;;;;;5083572;28;20293;-54
2023/01/29 03:19:43;;;;;;;4.65;4.25;;;16.30;49.60;;;;;;5078172;28;20185;-57
2023/01/29 03:22:08;;;;;;;4.30;4.00;;;16.30;49.60;;;;;;5078228;28;20177;-54
2023/01/29 03:33:31;;;;;;;4.25;3.95;;;16.20;50.20;;;;;;5097896;28;20214;-53
2023/01/29 03:36:09;;;;;;;4.57;4.18;;;16.20;49.60;;;;;;5078405;28;20188;-52
2023/01/29 03:38:35;;;;;;;4.40;4.10;;;16.20;49.60;;;;;;5112040;28;20184;-55
2023/01/29 03:41:07;;;;;;;3.60;3.30;;;16.20;49.50;;;;;;5112884;28;20177;-53
2023/01/29 03:43:44;;;;;;;4.95;4.53;;;16.10;49.50;;;;;;5078060;28;20647;-54
2023/01/29 03:46:17;;;;;;;5.03;4.63;;;16.20;49.60;;;;;;5078267;28;20177;-52
2023/01/29 03:48:52;;;;;;;4.10;3.80;;;16.20;49.60;;;;;;5094815;28;20538;-51
2023/01/29 03:51:29;;;;;;;4.60;4.20;;;16.10;49.60;;;;;;5111605;28;20547;-51
2023/01/29 03:54:03;;;;;;;4.55;4.15;;;16.20;49.50;;;;;;5095350;28;20179;-50
2023/01/29 03:56:54;;;;;;;4.68;4.32;;;16.10;49.50;;;;;;5112749;28;20225;-55
2023/01/29 03:59:48;;;;;;;5.18;4.68;;;16.10;49.40;;;;;;5111753;28;20177;-54
2023/01/29 04:02:26;;;;;;;5.68;4.55;;;16.10;49.50;;;;;;5080978;28;20201;-55
2023/01/29 04:04:52;;;;;;;4.65;4.30;;;16.10;49.50;;;;;;5098356;28;20184;-49
2023/01/29 04:07:23;;;;;;;5.18;4.78;;;16.10;49.60;;;;;;5080619;28;20177;-54
2023/01/29 04:10:14;;;;;;;4.85;4.45;;;16.10;49.60;;;;;;5116425;28;20212;-50
2023/01/29 04:12:46;;;;;;;4.53;4.13;;;16.10;50.20;;;;;;5103615;28;20303;-55
2023/01/29 04:15:15;;;;;;;4.75;4.35;;;16.10;49.60;;;;;;5098053;28;20703;-51
2023/01/29 04:17:44;;;;;;;4.95;4.55;;;16.10;49.60;;;;;;5098186;28;20311;-56
2023/01/29 04:20:10;;;;;;;4.32;3.95;;;16.00;49.50;;;;;;5115601;28;20188;-52
2023/01/29 04:22:37;;;;;;;5.70;5.20;;;16.10;49.60;;;;;;5115933;28;20173;-54
2023/01/29 04:25:07;;;;;;;4.57;4.20;;;16.10;49.50;;;;;;5116024;28;20173;-49
2023/01/29 04:28:03;;;;;;;4.72;4.32;;;16.00;50.10;;;;;;5115402;28;20202;-52
2023/01/29 04:30:29;;;;;;;4.78;4.47;;;16.00;49.50;;;;;;5083672;28;20212;-52
2023/01/29 04:32:56;;;;;;;5.18;4.68;;;16.00;49.50;;;;;;5115982;28;20176;-49
2023/01/29 04:35:35;;;;;;;5.05;4.65;;;16.00;49.40;;;;;;5096993;28;20181;-50
2023/01/29 04:38:21;;;;;;;4.47;4.18;;;16.00;49.40;;;;;;5098001;28;20176;-52
2023/01/29 04:40:54;;;;;;;4.72;4.32;;;16.00;49.40;;;;;;5097167;28;20307;-54
2023/01/29 04:43:30;;;;;;;4.80;4.40;;;16.00;49.40;;;;;;5081139;28;20199;-54
2023/01/29 04:46:10;;;;;;;5.10;4.60;;;16.00;49.40;;;;;;5116257;28;20177;-52
2023/01/29 04:48:44;;;;;;;4.90;4.50;;;16.00;49.30;;;;;;5114649;28;20594;-51
2023/01/29 04:51:22;;;;;;;4.85;4.45;;;15.90;49.50;;;;;;5115632;28;20274;-54
2023/01/29 04:54:05;;;;;;;4.70;4.30;;;15.90;49.40;;;;;;5081387;28;20180;-51
2023/01/29 04:56:50;;;;;;;5.25;4.78;;;15.90;49.50;;;;;;5081199;28;20187;-54
2023/01/29 04:59:19;;;;;;;5.75;5.25;;;15.90;49.50;;;;;;5099618;28;20169;-51
2023/01/29 05:01:45;;;;;;;4.90;4.50;;;16.00;49.60;;;;;;5097137;28;20645;-56
2023/01/29 05:04:12;;;;;;;5.20;4.70;;;15.90;49.50;;;;;;5080333;28;20639;-53
2023/01/29 05:06:37;;;;;;;4.25;3.95;;;15.90;49.50;;;;;;5080269;28;20183;-55
2023/01/29 05:09:03;;;;;;;4.72;4.32;;;15.90;49.40;;;;;;5096338;28;20177;-53
2023/01/29 05:11:29;;;;;;;5.25;4.75;;;15.90;49.50;;;;;;5096774;28;20215;-55
2023/01/29 05:13:55;;;;;;;4.40;4.10;;;15.90;49.50;;;;;;5115128;28;20264;-57
2023/01/29 05:16:25;;;;;;;4.38;4.07;;;15.90;49.50;;;;;;5113147;28;20271;-56
2023/01/29 05:18:50;;;;;;;4.97;4.57;;;15.80;49.40;;;;;;5080307;28;20768;-53
2023/01/29 05:21:16;;;;;;;4.38;3.97;;;15.90;49.50;;;;;;5115041;28;20173;-50
2023/01/29 05:23:51;;;;;;;4.90;4.50;;;15.80;49.50;;;;;;5096329;28;20169;-56
2023/01/29 05:29:03;;;;;;;4.25;3.95;;;15.80;49.50;;;;;;5114903;28;20299;-53
2023/01/29 05:31:28;;;;;;;4.97;4.55;;;15.80;49.60;;;;;;5113853;28;20296;-55
2023/01/29 05:33:54;;;;;;;4.68;4.28;;;15.80;49.60;;;;;;5115079;28;20161;-51
2023/01/29 05:36:20;;;;;;;5.03;4.63;;;15.70;49.50;;;;;;5114664;28;20173;-56
2023/01/29 05:38:45;;;;;;;4.93;4.43;;;15.80;49.60;;;;;;5114071;28;20195;-56
2023/01/29 05:41:11;;;;;;;4.50;4.10;;;15.80;49.60;;;;;;5114833;28;20176;-54
2023/01/29 05:43:36;;;;;;;4.43;4.03;;;15.80;49.60;;;;;;5113543;28;20177;-55
2023/01/29 05:46:02;;;;;;;4.47;4.10;;;15.80;49.60;;;;;;5114556;28;20523;-50
2023/01/29 05:48:28;;;;;;;4.32;3.92;;;15.80;49.60;;;;;;5114443;28;20602;-53
2023/01/29 05:50:58;;;;;;;4.50;4.10;;;15.80;49.60;;;;;;5113820;28;20638;-53
2023/01/29 05:53:23;;;;;;;4.55;4.20;;;15.80;49.60;;;;;;5114271;28;20181;-50
2023/01/29 05:55:49;;;;;;;4.93;4.32;;;15.70;49.60;;;;;;5114590;28;20169;-49
2023/01/29 05:58:14;;;;;;;4.45;4.05;;;15.80;49.60;;;;;;5113764;28;20180;-50
2023/01/29 06:00:40;;;;;;;4.72;4.35;;;15.70;49.60;;;;;;5114248;28;20210;-54
2023/01/29 06:03:05;;;;;;;4.50;4.10;;;15.70;49.60;;;;;;5114201;28;20169;-54
2023/01/29 06:05:31;;;;;;;4.68;4.28;;;15.70;49.60;;;;;;5113413;28;20222;-57
2023/01/29 06:07:57;;;;;;;4.60;4.25;;;15.70;49.60;;;;;;5114307;28;20655;-51
2023/01/29 06:10:22;;;;;;;4.38;4.03;;;15.70;49.60;;;;;;5113993;28;20227;-53
2023/01/29 06:12:48;;;;;;;4.57;4.18;;;15.70;49.60;;;;;;5113455;28;20188;-55
2023/01/29 06:15:14;;;;;;;6.25;4.43;;;15.70;49.60;;;;;;5114065;28;20180;-50
2023/01/29 06:17:40;;;;;;;4.72;4.32;;;15.70;49.60;;;;;;5113684;28;20236;-56
2023/01/29 06:20:06;;;;;;;5.15;4.68;;;15.70;49.60;;;;;;5113304;28;20272;-52
2023/01/29 06:22:32;;;;;;;4.55;4.15;;;15.70;49.50;;;;;;5112347;28;20177;-52
2023/01/29 06:24:57;;;;;;;4.45;4.05;;;15.70;49.60;;;;;;5114076;28;20519;-52
2023/01/29 06:27:23;;;;;;;4.40;4.10;;;15.70;49.60;;;;;;5112599;28;20173;-50
2023/01/29 06:29:49;;;;;;;4.50;4.10;;;15.60;49.50;;;;;;5113638;28;20209;-48
2023/01/29 06:32:14;;;;;;;5.75;4.25;;;15.60;49.50;;;;;;5113952;28;20173;-52
2023/01/29 06:34:40;;;;;;;4.50;4.10;;;15.60;49.50;;;;;;5112790;28;20180;-53
2023/01/29 06:37:06;;;;;;;4.55;4.15;;;15.50;49.60;;;;;;5113835;28;20581;-51
2023/01/29 06:39:32;;;;;;;5.30;4.80;;;15.60;49.60;;;;;;5113305;28;20177;-54
2023/01/29 06:41:57;;;;;;;5.28;4.82;;;15.60;49.60;;;;;;5112848;28;20226;-52
2023/01/29 06:44:23;;;;;;;4.85;4.45;;;15.60;49.60;;;;;;5113491;28;20176;-50
2023/01/29 06:46:48;;;;;;;4.25;3.85;;;15.60;49.40;;;;;;5113740;28;20177;-51
2023/01/29 06:49:14;;;;;;;4.90;4.50;;;15.60;49.50;;;;;;5112748;28;20531;-51
2023/01/29 06:51:40;;;;;;;4.15;3.85;;;15.60;50.10;;;;;;5113353;28;20656;-49
2023/01/29 06:54:07;;;;;;;4.32;4.03;;;15.60;49.60;;;;;;5112717;28;20248;-52
2023/01/29 06:56:32;;;;;;;4.15;3.85;;;15.60;49.60;;;;;;5113156;28;20176;-54
2023/01/29 06:58:58;;;;;;;4.63;4.22;;;15.50;49.60;;;;;;5113324;28;20184;-50
2023/01/29 07:01:23;;;;;;;4.32;3.92;;;15.60;49.70;;;;;;5094375;28;20635;-53
2023/01/29 07:03:50;;;;;;;4.13;3.83;;;15.50;49.50;;;;;;5113411;28;20165;-51
2023/01/29 07:06:16;;;;;;;4.35;4.05;;;15.60;49.50;;;;;;5113394;28;20177;-52
2023/01/29 07:08:41;;;;;;;3.78;3.47;;;15.70;49.60;;;;;;5112644;28;20169;-56
2023/01/29 07:11:07;;;;;;;3.97;3.60;;;15.80;49.60;;;;;;5113155;28;20201;-48
2023/01/29 07:13:33;;;;;;;4.18;3.78;;;15.90;50.20;;;;;;5112891;28;20173;-56
2023/01/29 07:15:59;;;;;;;3.95;3.65;;;16.00;49.50;;;;;;5112784;28;20517;-55
2023/01/29 07:18:25;;;;;;;3.80;3.50;;;16.00;49.40;;;;;;5112883;28;20295;-54
2023/01/29 07:20:51;;;;;;;4.00;3.70;;;16.10;49.30;;;;;;5113376;28;20599;-50
2023/01/29 07:23:16;;;;;;;4.05;3.65;;;16.20;49.10;;;;;;5112241;28;20685;-49
2023/01/29 07:25:42;;;;;;;3.97;3.67;;;16.40;48.90;;;;;;5113204;28;20173;-50
2023/01/29 07:28:08;;;;;;;3.60;3.30;;;16.60;48.70;;;;;;5113067;28;20173;-53
2023/01/29 07:30:33;;;;;;;3.38;3.10;;;16.70;48.50;;;;;;5112083;28;20250;-51
2023/01/29 07:33:06;;;;;;;3.65;3.30;;;16.90;48.30;;;;;;5112971;28;20250;-50
2023/01/29 07:35:35;;;;;;;4.20;3.90;;;17.00;48.10;;;;;;5112643;28;20646;-53
2023/01/29 07:38:00;;;;;;;3.58;3.35;;;17.10;47.90;;;;;;5112264;28;20169;-53
2023/01/29 07:40:26;;;;;;;3.33;3.03;;;17.30;47.60;;;;;;5116901;28;20226;-57
2023/01/29 07:42:57;;;;;;;3.58;3.30;;;17.40;47.50;;;;;;5117087;28;20173;-51
2023/01/29 07:45:23;;;;;;;3.80;3.50;;;17.50;47.30;;;;;;5115987;28;20627;-56
2023/01/29 07:47:52;;;;;;;4.13;3.72;;;17.50;47.10;;;;;;5116885;28;20181;-66
2023/01/29 07:50:18;;;;;;;3.80;3.38;;;17.50;47.30;;;;;;5116369;28;20212;-68
2023/01/29 07:52:43;;;;;;;3.75;3.45;;;17.60;47.30;;;;;;5116740;28;20173;-65
2023/01/29 07:55:09;;;;;;;4.32;4.03;;;17.60;47.30;;;;;;5116704;28;20172;-64
2023/01/29 07:57:34;;;;;;;3.75;3.45;;;17.60;47.40;;;;;;5115892;28;20173;-68
2023/01/29 08:00:00;;;;;;;3.80;3.45;;;17.50;47.60;;;;;;5116723;28;20177;-63
2023/01/29 08:02:25;;;;;;;3.53;3.20;;;17.50;47.70;;;;;;5116484;28;20217;-64
2023/01/29 08:04:51;;;;;;;7.25;3.70;;;17.60;47.90;;;;;;5116172;28;20260;-64
2023/01/29 08:07:16;;;;;;;3.33;3.03;;;17.60;47.90;;;;;;5116417;28;20259;-64
2023/01/29 08:09:42;;;;;;;3.33;3.03;;;17.60;47.80;;;;;;5116445;28;20296;-65
2023/01/29 08:12:07;;;;;;;3.97;3.60;;;17.70;47.80;;;;;;5115998;28;20649;-64
2023/01/29 08:14:33;;;;;;;3.60;3.30;;;17.60;47.90;;;;;;5116110;28;20635;-64
2023/01/29 08:16:58;;;;;;;3.45;3.15;;;17.60;48.00;;;;;;5116178;28;20703;-65
2023/01/29 08:19:24;;;;;;;3.38;3.08;;;17.50;48.20;;;;;;5115170;28;20267;-65
2023/01/29 08:21:49;;;;;;;4.95;3.15;;;17.40;48.40;;;;;;5116314;28;20256;-65
2023/01/29 08:24:15;;;;;;;3.33;3.03;;;17.30;48.50;;;;;;5116041;28;20264;-63
2023/01/29 08:26:40;;;;;;;3.85;3.15;;;17.30;48.50;;;;;;5113519;28;20256;-63
2023/01/29 08:29:06;;;;;;;3.70;3.40;;;17.30;48.60;;;;;;5115854;28;20201;-63
2023/01/29 08:31:32;;;;;;;3.08;2.85;;;17.20;48.70;;;;;;5115904;28;20248;-63
2023/01/29 08:33:58;;;;;;;3.25;2.85;;;17.20;48.70;;;;;;5115167;28;20204;-64
2023/01/29 08:36:24;;;;;;;3.20;2.90;;;17.20;48.70;;;;;;5115621;28;20177;-64
2023/01/29 08:38:49;;;;;;;3.13;2.85;;;17.10;48.70;;;;;;5115855;28;20169;-63
2023/01/29 08:41:15;;;;;;;2.92;2.72;;;17.10;48.70;;;;;;5115266;28;20173;-63
2023/01/29 08:43:40;;;;;;;3.08;2.88;;;17.00;48.80;;;;;;5115494;28;20555;-62
2023/01/29 08:46:06;;;;;;;3.40;3.10;;;16.90;48.80;;;;;;5115969;28;20624;-63
2023/01/29 08:48:32;;;;;;;3.55;3.25;;;16.90;48.80;;;;;;5114685;28;20586;-63
2023/01/29 08:50:58;;;;;;;3.30;3.10;;;16.80;48.80;;;;;;5115577;28;20258;-63
2023/01/29 08:53:24;;;;;;;3.45;3.15;;;16.80;48.80;;;;;;5115531;28;20541;-62
2023/01/29 08:55:50;;;;;;;3.55;3.08;;;16.90;48.90;;;;;;5114029;28;20192;-63
2023/01/29 08:58:15;;;;;;;3.63;3.33;;;16.90;48.80;;;;;;5115416;28;20173;-63
2023/01/29 09:00:41;;;;;;;3.50;3.20;;;16.90;48.80;;;;;;5114379;28;20174;-63
2023/01/29 09:03:07;;;;;;;3.15;2.92;;;17.00;48.70;;;;;;5115400;28;20169;-63
2023/01/29 09:05:33;;;;;;;3.35;3.13;;;17.00;48.70;;;;;;5115118;28;20256;-64
2023/01/29 09:07:59;;;;;;;3.30;3.00;;;17.00;48.60;;;;;;5114598;28;20515;-63
2023/01/29 09:10:25;;;;;;;3.00;2.80;;;16.90;48.60;;;;;;5114726;28;20215;-63
2023/01/29 09:12:51;;;;;;;4.35;3.17;;;16.90;48.60;;;;;;5115431;28;20165;-64
2023/01/29 09:15:16;;;;;;;2.92;2.63;;;16.90;48.70;;;;;;5114570;28;20231;-62
2023/01/29 09:17:42;;;;;;;3.75;3.13;;;16.80;48.70;;;;;;5114896;28;20224;-64
2023/01/29 09:20:08;;;;;;;3.47;3.17;;;16.80;48.80;;;;;;5115039;28;20218;-63
2023/01/29 09:22:34;;;;;;;3.00;2.80;;;16.80;48.80;;;;;;5114205;28;20229;-62
2023/01/29 09:24:59;;;;;;;3.53;3.22;;;16.80;48.80;;;;;;5115289;28;20177;-62
2023/01/29 09:27:25;;;;;;;2.90;2.70;;;16.80;48.70;;;;;;5114758;28;20207;-62
2023/01/29 09:29:50;;;;;;;3.05;2.75;;;16.90;48.70;;;;;;5114245;28;20656;-62
2023/01/29 09:32:16;;;;;;;2.97;2.78;;;16.90;48.70;;;;;;5115037;28;20176;-62
2023/01/29 09:34:42;;;;;;;3.08;2.88;;;16.90;48.60;;;;;;5114717;28;20192;-62
2023/01/29 09:37:07;;;;;;;2.88;2.67;;;17.00;48.60;;;;;;5107764;28;20189;-64
2023/01/29 09:39:33;;;;;;;3.20;2.90;;;17.00;48.50;;;;;;5094259;28;20549;-65
2023/01/29 09:42:08;;;;;;;3.28;2.70;;;17.00;48.40;;;;;;5094270;28;20535;-65
2023/01/29 09:44:56;;;;;;;4.15;3.17;;;17.10;48.50;;;;;;5075273;28;20196;-63
2023/01/29 09:47:23;;;;;;;3.28;2.95;;;17.20;48.50;;;;;;5093877;28;20169;-60
2023/01/29 09:50:16;;;;;;;3.80;2.78;;;17.30;48.50;;;;;;5093068;28;20304;-62
2023/01/29 09:52:45;;;;;;;3.28;2.97;;;17.50;48.40;;;;;;5088845;28;20185;-60
2023/01/29 09:55:34;;;;;;;2.78;2.58;;;17.70;48.10;;;;;;5094178;28;20654;-60
2023/01/29 09:58:19;;;;;;;3.22;2.67;;;18.10;47.60;;;;;;5093196;28;20196;-61
2023/01/29 10:01:05;;;;;;;3.85;2.72;;;18.30;47.30;;;;;;5061771;28;20178;-62
2023/01/29 10:03:31;;;;;;;2.40;2.00;;;18.50;47.00;;;;;;5076433;28;20709;-61
2023/01/29 10:06:21;;;;;;;2.83;2.22;;;18.50;46.90;;;;;;5093209;28;20174;-61
2023/01/29 10:09:24;;;;;;;3.33;2.47;;;18.60;46.90;;;;;;5093888;28;20182;-61
2023/01/29 10:12:02;;;;;;;4.18;2.50;;;18.70;46.90;;;;;;5093126;28;20196;-61
2023/01/29 10:14:54;;;;;;;3.75;2.47;;;18.80;46.80;;;;;;5093479;28;20178;-61
2023/01/29 10:17:42;;;;;;;2.40;2.20;;;18.80;46.70;;;;;;5093400;28;20222;-61
2023/01/29 10:20:26;;;;;;;2.30;2.00;;;18.90;46.60;;;;;;5074862;28;20528;-61
2023/01/29 10:23:15;;;;;;;3.42;2.60;;;19.00;46.50;;;;;;5093268;28;20505;-61
2023/01/29 10:25:41;;;;;;;3.05;2.10;;;19.10;46.60;;;;;;5058078;28;20186;-62
2023/01/29 10:28:19;;;;;;;3.25;2.53;;;19.00;46.50;;;;;;5075384;28;20252;-63
2023/01/29 10:30:48;;;;;;;6.78;2.58;;;19.10;46.60;;;;;;5076194;28;20265;-63
2023/01/29 10:33:29;;;;;;;3.85;2.53;;;19.10;46.60;;;;;;5074692;28;20170;-62
2023/01/29 10:35:58;;;;;;;3.03;2.20;;;19.10;46.50;;;;;;5075575;28;20617;-61
2023/01/29 10:38:38;;;;;;;4.53;2.45;;;19.20;46.50;;;;;;5075324;28;20256;-62
2023/01/29 10:41:08;;;;;;;2.63;2.28;;;19.20;46.50;;;;;;5092719;28;20185;-62
2023/01/29 10:43:54;;;;;;;4.93;2.50;;;19.20;46.50;;;;;;5075517;28;20212;-61
2023/01/29 10:46:26;;;;;;;3.72;2.42;;;19.20;46.50;;;;;;5077156;28;20165;-62
2023/01/29 10:49:17;;;;;;;3.03;2.72;;;19.20;46.50;;;;;;5093370;28;20166;-62
2023/01/29 10:51:52;;;;;;;2.90;2.60;;;19.20;46.60;;;;;;5070273;28;20751;-62
2023/01/29 10:54:32;;;;;;;3.05;2.47;;;19.20;46.50;;;;;;5074867;28;20192;-62
2023/01/29 10:57:10;;;;;;;3.08;2.38;;;19.30;46.50;;;;;;5076313;28;20177;-61
2023/01/29 10:59:47;;;;;;;2.60;2.40;;;19.40;46.40;;;;;;5092921;28;20478;-65
2023/01/29 11:02:18;;;;;;;2.40;2.20;;;19.40;46.30;;;;;;5058225;28;20174;-66
2023/01/29 11:04:44;;;;;;;3.72;2.67;;;19.40;46.30;;;;;;5094139;28;20201;-66
2023/01/29 11:07:10;;;;;;;2.92;2.58;;;19.40;46.20;;;;;;5092179;28;20557;-67
2023/01/29 11:09:43;;;;;;;3.67;2.78;;;19.30;46.30;;;;;;5092523;28;20182;-71
2023/01/29 11:12:15;;;;;;;2.88;2.58;;;19.30;46.40;;;;;;5074929;28;20209;-69
2023/01/29 11:14:50;;;;;;;3.20;2.80;;;19.30;46.40;;;;;;5060537;28;20547;-65
2023/01/29 11:17:22;;;;;;;2.92;2.60;;;19.20;46.70;;;;;;5080034;28;20233;-64
2023/01/29 11:19:54;;;;;;;2.85;2.40;;;19.20;46.50;;;;;;5097163;28;20173;-64
2023/01/29 11:22:21;;;;;;;2.50;2.30;;;19.30;46.40;;;;;;5078793;28;20640;-64
2023/01/29 11:25:14;;;;;;;3.38;2.55;;;19.30;46.40;;;;;;5097094;28;20178;-64
2023/01/29 11:27:45;;;;;;;3.00;2.65;;;19.40;46.40;;;;;;5096766;28;20173;-64
2023/01/29 11:30:32;;;;;;;2.63;2.30;;;19.40;46.40;;;;;;5096378;28;20205;-64
2023/01/29 11:33:04;;;;;;;3.95;2.30;;;19.40;46.40;;;;;;5096844;28;20174;-64
2023/01/29 11:35:32;;;;;;;3.03;2.17;;;19.40;46.50;;;;;;5095869;28;20173;-63
2023/01/29 11:38:06;;;;;;;2.45;2.25;;;19.30;46.60;;;;;;5096726;28;20261;-63
2023/01/29 11:40:36;;;;;;;2.78;2.55;;;19.40;46.60;;;;;;5096381;28;20525;-61
2023/01/29 11:43:15;;;;;;;2.53;2.33;;;19.40;46.50;;;;;;5095857;28;20540;-65
2023/01/29 11:45:40;;;;;;;2.92;2.30;;;19.30;46.70;;;;;;5096270;28;20256;-62
2023/01/29 11:48:20;;;;;;;3.10;2.65;;;19.40;46.80;;;;;;5078566;28;20249;-62
2023/01/29 11:51:01;;;;;;;5.90;2.53;;;19.40;46.40;;;;;;5079222;28;20210;-62
2023/01/29 11:53:32;;;;;;;5.85;2.33;;;19.50;46.30;;;;;;5078769;28;20205;-62
2023/01/29 11:55:58;;;;;;;3.17;2.10;;;19.50;46.40;;;;;;5096467;28;20219;-64
2023/01/29 11:58:28;;;;;;;6.13;2.42;;;19.60;46.20;;;;;;5095208;28;20174;-64
2023/01/29 12:00:54;;;;;;;3.28;2.50;;;19.60;46.20;;;;;;5096305;28;20169;-65
2023/01/29 12:03:40;;;;;;;4.20;2.80;;;19.70;46.90;;;;;;5077792;28;20524;-61
2023/01/29 12:06:35;;;;;;;5.80;2.33;;;19.70;46.20;;;;;;5095938;28;20186;-62
2023/01/29 12:09:02;;;;;;;4.60;2.60;;;19.70;46.30;;;;;;5077898;28;20166;-64
2023/01/29 12:11:31;;;;;;;2.85;2.45;;;19.80;46.50;;;;;;5060290;28;20572;-67
2023/01/29 12:14:02;;;;;;;4.43;2.40;;;19.80;46.20;;;;;;5096616;28;20174;-65
2023/01/29 12:16:30;;;;;;;5.65;2.17;;;19.80;46.10;;;;;;5095393;28;20186;-65
2023/01/29 12:19:02;;;;;;;4.78;2.60;;;19.80;46.20;;;;;;5094895;28;20313;-66
2023/01/29 12:21:48;;;;;;;6.13;2.70;;;19.90;46.20;;;;;;5077796;28;20253;-62
2023/01/29 12:24:33;;;;;;;2.63;2.42;;;19.90;46.30;;;;;;5077482;28;20178;-61
2023/01/29 12:27:18;;;;;;;2.92;2.35;;;19.90;46.40;;;;;;5095856;28;20174;-64
2023/01/29 12:29:51;;;;;;;5.22;2.50;;;19.90;46.30;;;;;;5061509;28;20257;-64
2023/01/29 12:32:48;;;;;;;4.72;2.80;;;19.90;46.40;;;;;;5094717;28;20178;-62
2023/01/29 12:35:23;;;;;;;3.20;2.42;;;20.00;46.50;;;;;;5080031;28;20252;-63
2023/01/29 12:38:17;;;;;;;6.22;2.65;;;20.00;46.60;;;;;;5095600;28;20184;-63
2023/01/29 12:40:50;;;;;;;2.38;1.80;;;20.00;46.60;;;;;;5094737;28;20185;-61
2023/01/29 12:43:17;;;;;;;4.07;2.00;;;20.10;46.60;;;;;;5077604;28;20174;-62
2023/01/29 12:45:44;;;;;;;2.70;2.17;;;20.10;46.70;;;;;;5094881;28;20205;-62
2023/01/29 12:48:22;;;;;;;4.10;2.13;;;20.10;46.80;;;;;;5060858;28;20178;-60
2023/01/29 12:50:47;;;;;;;3.50;2.10;;;20.10;46.80;;;;;;5077197;28;20205;-63
2023/01/29 12:53:24;;;;;;;2.92;2.10;;;20.10;46.90;;;;;;5076809;28;20256;-61
2023/01/29 12:56:08;;;;;;;4.53;2.20;;;20.00;46.90;;;;;;5077227;28;20173;-62
2023/01/29 12:58:42;;;;;;;2.83;1.80;;;19.90;47.10;;;;;;5061311;28;20181;-64
2023/01/29 13:01:23;;;;;;;4.30;2.40;;;19.80;47.30;;;;;;5094411;28;20227;-63
2023/01/29 13:04:03;;;;;;;3.72;1.98;;;19.80;47.50;;;;;;5060236;28;20219;-61
2023/01/29 13:06:34;;;;;;;2.65;2.00;;;19.60;47.70;;;;;;5060877;28;20185;-64
2023/01/29 13:09:05;;;;;;;2.22;2.03;;;19.60;48.00;;;;;;5060202;28;20576;-64
2023/01/29 13:11:36;;;;;;;3.53;1.90;;;19.50;48.00;;;;;;5060182;28;20732;-65
2023/01/29 13:14:19;;;;;;;2.53;2.10;;;19.50;48.00;;;;;;5076247;28;20230;-64
2023/01/29 13:16:46;;;;;;;2.40;2.20;;;19.50;48.10;;;;;;5061212;28;20174;-63
2023/01/29 13:19:45;;;;;;;3.25;2.33;;;19.50;48.30;;;;;;5059869;28;20225;-63
2023/01/29 13:22:28;;;;;;;2.53;2.00;;;19.50;48.30;;;;;;5022281;28;20189;-62
2023/01/29 13:24:54;;;;;;;5.07;2.05;;;19.50;48.30;;;;;;5094789;28;20181;-62
2023/01/29 13:27:29;;;;;;;2.13;2.00;;;19.40;48.50;;;;;;5060116;28;20231;-63
2023/01/29 13:29:55;;;;;;;3.03;2.08;;;19.50;48.40;;;;;;5059070;28;20632;-62
2023/01/29 13:32:30;;;;;;;2.50;2.30;;;19.50;48.40;;;;;;5093959;28;20177;-63
2023/01/29 13:35:02;;;;;;;4.53;2.33;;;19.50;48.40;;;;;;5075784;28;20178;-64